Time;durP1;ratioP1;P1;durP2;ratioP2;P2;SDS_P1;SDS_P2;PMS_P1;PMS_P2;Temp;Humidity;BMP_temperature;BMP_pressure;BME280_temperature;BME280_humidity;BME280_pressure;Samples;Min_cycle;Max_cycle;Signal;HPM_P1;HPM_P2
2023/07/07 00:01:01;;;;;;;12.38;7.47;;;17.00;99.90;;;;;;5112347;28;20189;-75
2023/07/07 00:03:28;;;;;;;14.25;8.82;;;17.00;99.90;;;;;;5112257;28;20269;-75
2023/07/07 00:05:53;;;;;;;20.35;11.32;;;17.00;99.90;;;;;;5110301;28;20177;-75
2023/07/07 00:08:19;;;;;;;20.98;12.18;;;16.90;99.90;;;;;;5105611;28;20220;-74
2023/07/07 00:10:46;;;;;;;13.95;10.35;;;16.90;99.90;;;;;;5110216;28;20189;-75
2023/07/07 00:13:13;;;;;;;18.30;9.57;;;16.90;99.90;;;;;;5093764;28;20196;-76
2023/07/07 00:15:44;;;;;;;11.13;6.78;;;16.90;99.90;;;;;;5102828;28;20185;-75
2023/07/07 00:18:15;;;;;;;13.27;5.90;;;16.80;99.90;;;;;;5098418;28;20273;-74
2023/07/07 00:20:41;;;;;;;10.43;5.18;;;16.80;99.90;;;;;;5112543;28;20165;-75
2023/07/07 00:23:07;;;;;;;11.80;4.70;;;16.70;99.90;;;;;;5111379;28;21049;-76
2023/07/07 00:25:33;;;;;;;11.77;5.72;;;16.70;99.90;;;;;;5109581;28;20290;-75
2023/07/07 00:27:59;;;;;;;10.45;4.82;;;16.60;99.90;;;;;;5095416;28;20233;-75
2023/07/07 00:30:25;;;;;;;6.75;4.88;;;16.60;99.90;;;;;;5090139;28;20663;-75
2023/07/07 00:32:50;;;;;;;6.22;4.65;;;16.50;99.90;;;;;;5091444;28;20231;-76
2023/07/07 00:35:16;;;;;;;10.43;5.10;;;16.60;99.90;;;;;;5096226;28;20177;-75
2023/07/07 00:37:45;;;;;;;9.88;5.00;;;16.50;99.90;;;;;;5090127;28;20280;-75
2023/07/07 00:40:12;;;;;;;9.90;5.28;;;16.50;99.90;;;;;;5112046;28;20185;-74
2023/07/07 00:42:38;;;;;;;6.85;4.65;;;16.50;99.90;;;;;;5093922;28;20226;-75
2023/07/07 00:45:19;;;;;;;8.93;4.80;;;16.50;99.90;;;;;;5110313;28;20181;-75
2023/07/07 00:47:54;;;;;;;8.32;4.85;;;16.50;99.90;;;;;;5102830;28;20316;-75
2023/07/07 00:50:24;;;;;;;10.68;4.60;;;16.50;99.90;;;;;;5120109;28;20533;-75
2023/07/07 00:52:50;;;;;;;7.47;4.47;;;16.40;99.90;;;;;;5104916;28;20189;-76
2023/07/07 00:55:28;;;;;;;8.45;4.88;;;16.50;99.90;;;;;;5093733;28;20277;-75
2023/07/07 00:57:54;;;;;;;10.93;4.47;;;16.40;99.90;;;;;;5092388;28;20189;-76
2023/07/07 01:00:20;;;;;;;6.25;4.43;;;16.40;99.90;;;;;;5091470;28;20182;-76
2023/07/07 01:02:55;;;;;;;10.18;4.68;;;16.40;99.90;;;;;;5091347;28;20185;-76
2023/07/07 01:05:25;;;;;;;10.50;4.60;;;16.40;99.90;;;;;;5096797;28;20553;-75
2023/07/07 01:07:52;;;;;;;8.75;4.80;;;16.40;99.90;;;;;;5106096;28;20300;-75
2023/07/07 01:10:21;;;;;;;8.30;5.03;;;16.40;99.90;;;;;;5114372;28;20185;-75
2023/07/07 01:12:48;;;;;;;6.07;4.63;;;16.40;99.90;;;;;;5102167;28;20186;-76
2023/07/07 01:15:14;;;;;;;9.02;5.03;;;16.40;99.90;;;;;;5108903;28;20178;-75
2023/07/07 01:17:55;;;;;;;9.93;4.95;;;16.40;99.90;;;;;;5103495;28;20703;-76
2023/07/07 01:20:32;;;;;;;8.02;4.72;;;16.40;99.90;;;;;;5115766;28;20227;-75
2023/07/07 01:23:32;;;;;;;7.80;4.90;;;16.40;99.90;;;;;;5106063;28;20177;-75
2023/07/07 01:26:17;;;;;;;8.40;5.30;;;16.40;99.90;;;;;;5112321;28;20181;-75
2023/07/07 01:28:58;;;;;;;8.80;5.10;;;16.40;99.90;;;;;;5101597;28;20224;-75
2023/07/07 01:31:40;;;;;;;8.35;5.75;;;16.30;99.90;;;;;;5095050;28;20178;-75
2023/07/07 01:34:10;;;;;;;8.63;5.82;;;16.30;99.90;;;;;;5094988;28;20274;-77
2023/07/07 01:36:36;;;;;;;9.90;6.30;;;16.30;99.90;;;;;;5095757;28;20544;-75
2023/07/07 01:39:03;;;;;;;11.10;6.18;;;16.30;99.90;;;;;;5108781;28;20193;-75
2023/07/07 01:41:35;;;;;;;9.48;5.88;;;16.20;99.90;;;;;;5115094;28;20184;-75
2023/07/07 01:44:18;;;;;;;11.73;6.20;;;16.20;99.90;;;;;;5113454;28;20204;-75
2023/07/07 01:46:56;;;;;;;12.23;5.93;;;16.20;99.90;;;;;;5114498;28;20165;-75
2023/07/07 01:49:31;;;;;;;10.50;6.05;;;16.10;99.90;;;;;;5108138;28;20208;-75
2023/07/07 01:52:10;;;;;;;9.38;5.68;;;16.00;99.90;;;;;;5113251;28;20191;-75
2023/07/07 01:54:41;;;;;;;9.80;5.90;;;16.00;99.90;;;;;;5104813;28;20572;-75
2023/07/07 01:57:08;;;;;;;7.57;5.47;;;16.00;99.90;;;;;;5093474;28;20186;-77
2023/07/07 01:59:35;;;;;;;8.88;5.97;;;15.90;99.90;;;;;;5103843;28;20178;-74
2023/07/07 02:02:01;;;;;;;8.35;5.68;;;15.80;99.90;;;;;;5096661;28;20189;-74
2023/07/07 02:04:27;;;;;;;8.15;5.95;;;15.80;99.90;;;;;;5109726;28;20667;-77
2023/07/07 02:06:52;;;;;;;8.65;5.43;;;15.90;99.90;;;;;;5093122;28;20300;-74
2023/07/07 02:09:20;;;;;;;8.98;5.47;;;15.80;99.90;;;;;;5093415;28;20555;-74
2023/07/07 02:11:45;;;;;;;7.25;5.35;;;15.80;99.90;;;;;;5094662;28;20178;-76
2023/07/07 02:14:11;;;;;;;8.18;6.05;;;15.80;99.90;;;;;;5100564;28;20184;-75
2023/07/07 02:16:37;;;;;;;12.13;6.40;;;15.90;99.90;;;;;;5092235;28;20279;-78
2023/07/07 02:19:03;;;;;;;8.95;6.30;;;15.90;99.90;;;;;;5112070;28;20193;-74
2023/07/07 02:21:29;;;;;;;11.77;6.13;;;15.90;99.90;;;;;;5113682;28;20177;-75
2023/07/07 02:23:55;;;;;;;13.25;5.93;;;15.80;99.90;;;;;;5113702;28;20668;-76
2023/07/07 02:26:20;;;;;;;12.90;6.32;;;15.90;99.90;;;;;;5111451;28;20181;-75
2023/07/07 02:28:47;;;;;;;11.38;5.90;;;15.80;99.90;;;;;;5095980;28;20236;-75
2023/07/07 02:31:13;;;;;;;9.70;6.30;;;15.90;99.90;;;;;;5113117;28;20207;-75
2023/07/07 02:33:39;;;;;;;12.77;6.78;;;15.80;99.90;;;;;;5114412;28;20178;-75
2023/07/07 02:36:07;;;;;;;13.32;6.97;;;15.80;99.90;;;;;;5112211;28;20181;-75
2023/07/07 02:38:35;;;;;;;13.60;6.95;;;15.80;99.90;;;;;;5104940;28;20186;-75
2023/07/07 02:41:01;;;;;;;13.70;7.35;;;15.80;99.90;;;;;;5093827;28;20541;-75
2023/07/07 02:43:28;;;;;;;18.15;8.25;;;15.80;99.90;;;;;;5093895;28;20614;-74
2023/07/07 02:45:54;;;;;;;16.25;8.30;;;15.80;99.90;;;;;;5095032;28;20192;-75
2023/07/07 02:48:21;;;;;;;14.82;8.75;;;15.80;99.90;;;;;;5102693;28;20206;-75
2023/07/07 02:51:01;;;;;;;14.27;8.63;;;15.80;99.90;;;;;;5106711;28;20193;-75
2023/07/07 02:53:30;;;;;;;19.13;9.10;;;15.80;99.90;;;;;;5111152;28;20184;-75
2023/07/07 02:55:57;;;;;;;16.02;8.82;;;15.80;99.90;;;;;;5112661;28;20288;-75
2023/07/07 02:58:23;;;;;;;18.88;9.02;;;15.80;99.90;;;;;;5104419;28;20185;-74
2023/07/07 03:00:50;;;;;;;12.45;9.57;;;15.80;99.90;;;;;;5095413;28;20310;-76
2023/07/07 03:03:17;;;;;;;17.42;10.07;;;15.80;99.90;;;;;;5093156;28;20180;-74
2023/07/07 03:05:43;;;;;;;17.42;9.82;;;15.70;99.90;;;;;;5092062;28;20772;-74
2023/07/07 03:08:10;;;;;;;15.73;10.13;;;15.80;99.90;;;;;;5100930;28;20201;-75
2023/07/07 03:10:38;;;;;;;23.58;10.80;;;15.70;99.90;;;;;;5112585;28;20200;-77
2023/07/07 03:13:04;;;;;;;15.93;10.45;;;15.70;99.90;;;;;;5111510;28;20193;-75
2023/07/07 03:15:38;;;;;;;15.80;10.40;;;15.70;99.90;;;;;;5108849;28;20173;-75
2023/07/07 03:18:06;;;;;;;21.60;10.40;;;15.70;99.90;;;;;;5109509;28;20551;-74
2023/07/07 03:20:32;;;;;;;16.42;10.65;;;15.80;99.90;;;;;;5108335;28;20185;-74
2023/07/07 03:22:58;;;;;;;18.42;11.15;;;15.70;99.90;;;;;;5108998;28;20184;-74
2023/07/07 03:25:26;;;;;;;17.50;11.32;;;15.70;99.90;;;;;;5101928;28;20241;-74
2023/07/07 03:27:53;;;;;;;17.90;10.98;;;15.80;99.90;;;;;;5111313;28;20257;-74
2023/07/07 03:30:34;;;;;;;22.95;11.35;;;15.70;99.90;;;;;;5107753;28;20652;-74
2023/07/07 03:33:08;;;;;;;18.88;11.68;;;15.70;99.90;;;;;;5111298;28;20192;-75
2023/07/07 03:35:34;;;;;;;21.85;11.68;;;15.70;99.90;;;;;;5112190;28;20173;-74
2023/07/07 03:38:00;;;;;;;20.17;11.75;;;15.70;99.90;;;;;;5094658;28;20181;-75
2023/07/07 03:40:26;;;;;;;21.98;11.32;;;15.70;99.90;;;;;;5094073;28;20196;-76
2023/07/07 03:42:54;;;;;;;19.52;12.15;;;15.70;99.90;;;;;;5098215;28;20559;-74
2023/07/07 03:45:21;;;;;;;21.30;12.32;;;15.70;99.90;;;;;;5091565;28;20252;-74
2023/07/07 03:47:47;;;;;;;22.33;11.27;;;15.70;99.90;;;;;;5074448;28;20213;-75
2023/07/07 03:50:13;;;;;;;19.63;12.25;;;15.70;99.90;;;;;;5081946;28;20193;-74
2023/07/07 03:52:39;;;;;;;20.98;11.82;;;15.70;99.90;;;;;;5116100;27;20182;-77
2023/07/07 03:55:05;;;;;;;18.38;11.65;;;15.70;99.90;;;;;;5092491;28;20601;-75
2023/07/07 03:57:31;;;;;;;20.00;11.88;;;15.70;99.90;;;;;;5092089;28;20204;-75
2023/07/07 03:59:57;;;;;;;24.33;13.27;;;15.70;99.90;;;;;;5105637;28;20902;-74
2023/07/07 04:02:23;;;;;;;18.92;12.35;;;15.70;99.90;;;;;;5111637;28;20189;-74
2023/07/07 04:04:48;;;;;;;19.63;12.75;;;15.70;99.90;;;;;;5111581;28;20252;-76
2023/07/07 04:07:14;;;;;;;21.77;13.65;;;15.70;99.90;;;;;;5110416;28;20299;-75
2023/07/07 04:09:40;;;;;;;29.60;13.60;;;15.70;99.90;;;;;;5111084;28;20173;-75
2023/07/07 04:12:09;;;;;;;22.65;13.65;;;15.70;99.90;;;;;;5085493;28;20182;-73
2023/07/07 04:14:35;;;;;;;23.75;14.65;;;15.70;99.90;;;;;;5100477;28;20181;-75
2023/07/07 04:17:01;;;;;;;22.25;13.55;;;15.70;99.90;;;;;;5094486;28;20224;-74
2023/07/07 04:19:27;;;;;;;20.77;13.30;;;15.70;99.90;;;;;;5111436;28;20213;-74
2023/07/07 04:21:53;;;;;;;21.08;13.25;;;15.70;99.90;;;;;;5105834;28;20216;-74
2023/07/07 04:24:20;;;;;;;21.85;13.02;;;15.80;99.90;;;;;;5102875;28;20184;-74
2023/07/07 04:26:47;;;;;;;21.85;14.80;;;15.80;99.90;;;;;;5112000;28;20263;-75
2023/07/07 04:29:13;;;;;;;21.23;14.60;;;15.80;99.90;;;;;;5110791;28;20229;-75
2023/07/07 04:31:44;;;;;;;27.45;14.40;;;15.80;99.90;;;;;;5101934;28;20182;-76
2023/07/07 04:34:11;;;;;;;23.45;14.43;;;15.80;99.90;;;;;;5108429;28;20268;-77
2023/07/07 04:36:37;;;;;;;21.05;13.77;;;15.80;99.90;;;;;;5101462;28;20204;-75
2023/07/07 04:39:03;;;;;;;21.13;13.90;;;15.80;99.90;;;;;;5090481;28;20178;-74
2023/07/07 04:41:30;;;;;;;19.90;14.30;;;15.80;99.90;;;;;;5090750;28;20182;-75
2023/07/07 04:43:57;;;;;;;22.67;13.70;;;15.90;99.90;;;;;;5102115;28;20192;-74
2023/07/07 04:46:34;;;;;;;21.90;13.98;;;15.90;99.90;;;;;;5105506;28;20255;-76
2023/07/07 04:49:06;;;;;;;25.25;13.35;;;15.90;99.90;;;;;;5107560;28;20195;-76
2023/07/07 04:51:37;;;;;;;20.70;14.30;;;15.90;99.90;;;;;;5116273;28;20225;-75
2023/07/07 04:54:04;;;;;;;20.55;13.60;;;16.00;99.90;;;;;;5101825;28;20237;-75
2023/07/07 04:56:30;;;;;;;21.10;14.00;;;16.00;99.90;;;;;;5110830;28;20185;-74
2023/07/07 04:58:56;;;;;;;21.77;13.85;;;16.00;99.90;;;;;;5115062;28;20173;-75
2023/07/07 05:01:31;;;;;;;22.83;15.05;;;16.00;99.90;;;;;;5110921;28;20183;-77
2023/07/07 05:04:00;;;;;;;26.83;14.85;;;16.10;99.90;;;;;;5108787;28;20285;-75
2023/07/07 05:06:28;;;;;;;24.15;14.75;;;16.10;99.90;;;;;;5107382;28;20280;-76
2023/07/07 05:08:54;;;;;;;24.88;14.30;;;16.10;99.90;;;;;;5114672;28;20214;-74
2023/07/07 05:11:23;;;;;;;22.02;14.20;;;16.10;99.90;;;;;;5114551;28;20270;-74
2023/07/07 05:13:50;;;;;;;25.88;14.55;;;16.20;99.90;;;;;;5107421;28;20173;-74
2023/07/07 05:16:18;;;;;;;24.70;14.45;;;16.20;99.90;;;;;;5116120;28;20264;-74
2023/07/07 05:18:44;;;;;;;20.90;14.15;;;16.20;99.90;;;;;;5114151;28;20234;-74
2023/07/07 05:21:12;;;;;;;22.48;14.50;;;16.30;99.90;;;;;;5114764;28;20181;-75
2023/07/07 05:23:38;;;;;;;26.10;14.88;;;16.30;99.90;;;;;;5113450;28;20768;-75
2023/07/07 05:26:05;;;;;;;23.50;13.52;;;16.30;99.90;;;;;;5109207;28;20200;-75
2023/07/07 05:28:31;;;;;;;23.77;13.65;;;16.40;99.90;;;;;;5095908;28;20229;-75
2023/07/07 05:30:57;;;;;;;18.77;13.60;;;16.30;99.90;;;;;;5095255;28;20212;-76
2023/07/07 05:33:23;;;;;;;20.38;13.77;;;16.40;99.90;;;;;;5094618;28;20213;-76
2023/07/07 05:35:54;;;;;;;21.20;13.30;;;16.40;99.90;;;;;;5093757;28;20592;-75
2023/07/07 05:38:22;;;;;;;22.75;13.57;;;16.50;99.90;;;;;;5098422;28;20189;-76
2023/07/07 05:40:48;;;;;;;22.50;13.00;;;16.50;99.90;;;;;;5099153;28;20686;-75
2023/07/07 05:43:19;;;;;;;21.83;13.25;;;16.60;99.90;;;;;;5113654;28;20265;-76
2023/07/07 05:45:46;;;;;;;22.92;13.57;;;16.60;99.90;;;;;;5112179;28;20181;-77
2023/07/07 05:48:13;;;;;;;22.35;13.23;;;16.70;99.90;;;;;;5106720;28;20215;-75
2023/07/07 05:50:40;;;;;;;20.30;12.48;;;16.70;99.90;;;;;;5105740;28;20590;-76
2023/07/07 05:53:06;;;;;;;16.58;11.82;;;16.70;99.90;;;;;;5101344;28;20184;-75
2023/07/07 05:55:33;;;;;;;20.63;12.45;;;16.80;99.90;;;;;;5113313;28;20185;-79
2023/07/07 05:58:00;;;;;;;22.75;12.18;;;16.90;99.90;;;;;;5114861;28;20212;-74
2023/07/07 06:00:28;;;;;;;20.52;12.93;;;16.90;99.90;;;;;;5108256;28;20502;-75
2023/07/07 06:02:54;;;;;;;29.52;11.77;;;17.00;99.90;;;;;;5090758;28;20193;-75
2023/07/07 06:05:20;;;;;;;21.35;11.82;;;17.00;99.90;;;;;;5093144;28;20178;-74
2023/07/07 06:07:46;;;;;;;20.42;12.25;;;17.10;99.90;;;;;;5094026;28;20214;-75
2023/07/07 06:10:13;;;;;;;19.10;12.43;;;17.10;99.90;;;;;;5105185;28;20208;-75
2023/07/07 06:12:39;;;;;;;19.40;12.02;;;17.20;99.90;;;;;;5112030;28;20185;-74
2023/07/07 06:15:06;;;;;;;19.08;12.10;;;17.30;99.90;;;;;;5106021;28;20221;-79
2023/07/07 06:17:32;;;;;;;17.65;11.35;;;17.40;99.90;;;;;;5114562;27;20182;-75
2023/07/07 06:19:58;;;;;;;18.02;11.30;;;17.40;99.90;;;;;;5112476;28;20165;-75
2023/07/07 06:22:24;;;;;;;19.02;11.73;;;17.50;99.90;;;;;;5109417;28;20181;-74
2023/07/07 06:24:52;;;;;;;22.75;11.68;;;17.50;99.90;;;;;;5114255;28;20180;-76
2023/07/07 06:27:18;;;;;;;22.08;11.40;;;17.60;99.90;;;;;;5114122;28;20207;-76
2023/07/07 06:29:44;;;;;;;18.20;10.88;;;17.70;99.90;;;;;;5114344;28;20192;-74
2023/07/07 06:32:10;;;;;;;20.80;10.85;;;17.70;99.90;;;;;;5109492;28;20193;-75
2023/07/07 06:34:36;;;;;;;15.52;10.43;;;17.80;99.90;;;;;;5105950;28;20173;-74
2023/07/07 06:37:02;;;;;;;14.43;10.07;;;17.90;99.90;;;;;;5104197;28;21075;-75
2023/07/07 06:39:28;;;;;;;19.17;10.98;;;17.90;99.90;;;;;;5113649;28;20181;-76
2023/07/07 06:41:55;;;;;;;17.33;10.95;;;18.00;99.90;;;;;;5112963;28;20539;-75
2023/07/07 06:44:23;;;;;;;19.70;10.65;;;18.10;99.90;;;;;;5112839;28;20256;-75
2023/07/07 06:46:49;;;;;;;18.27;9.80;;;18.10;99.90;;;;;;5114058;28;20712;-73
2023/07/07 06:49:14;;;;;;;18.42;9.30;;;18.20;99.90;;;;;;5113879;28;20193;-76
2023/07/07 06:51:40;;;;;;;13.10;9.30;;;18.30;99.90;;;;;;5109435;28;20964;-80
2023/07/07 06:54:06;;;;;;;14.73;9.70;;;18.30;99.90;;;;;;5094085;28;20641;-77
2023/07/07 06:56:32;;;;;;;15.10;9.02;;;18.40;99.90;;;;;;5092045;28;20518;-75
2023/07/07 06:58:57;;;;;;;16.55;10.30;;;18.50;99.90;;;;;;5093210;28;20190;-75
2023/07/07 07:01:23;;;;;;;17.05;8.25;;;18.50;99.90;;;;;;5093520;28;20189;-76
2023/07/07 07:03:49;;;;;;;14.02;8.63;;;18.60;99.90;;;;;;5100525;28;20246;-76
2023/07/07 07:06:16;;;;;;;14.82;8.60;;;18.70;99.90;;;;;;5110092;28;20201;-76
2023/07/07 07:08:41;;;;;;;16.38;8.15;;;18.70;99.90;;;;;;5112517;28;20232;-76
2023/07/07 07:11:07;;;;;;;12.93;7.47;;;18.80;99.90;;;;;;5103159;28;20700;-75
2023/07/07 07:13:33;;;;;;;11.88;7.63;;;18.90;99.90;;;;;;5098011;28;20228;-75
2023/07/07 07:15:59;;;;;;;16.13;7.53;;;19.00;99.90;;;;;;5107856;28;20238;-76
2023/07/07 07:18:25;;;;;;;11.25;6.60;;;19.10;99.90;;;;;;5112927;28;20193;-76
2023/07/07 07:20:54;;;;;;;13.20;6.28;;;19.10;99.90;;;;;;5108933;28;20504;-76
2023/07/07 07:23:21;;;;;;;12.23;6.55;;;19.20;99.90;;;;;;5104218;28;20285;-77
2023/07/07 07:25:48;;;;;;;9.85;5.93;;;19.30;99.90;;;;;;5113615;28;20166;-77
2023/07/07 07:28:15;;;;;;;16.77;6.88;;;19.40;99.90;;;;;;5108090;28;20233;-76
2023/07/07 07:30:42;;;;;;;11.60;5.53;;;19.40;99.90;;;;;;5113175;28;20177;-77
2023/07/07 07:33:13;;;;;;;9.98;5.38;;;19.50;99.90;;;;;;5112065;28;20185;-75
2023/07/07 07:35:39;;;;;;;11.70;5.90;;;19.60;99.90;;;;;;5093224;28;20223;-75
2023/07/07 07:38:06;;;;;;;13.80;6.38;;;19.70;99.90;;;;;;5112263;28;20184;-75
2023/07/07 07:40:32;;;;;;;10.60;4.70;;;19.80;99.90;;;;;;5111517;28;20255;-75
2023/07/07 07:42:57;;;;;;;10.00;5.53;;;19.80;99.90;;;;;;5103798;28;20208;-75
2023/07/07 07:45:24;;;;;;;14.27;5.15;;;20.00;99.90;;;;;;5107354;28;20562;-77
2023/07/07 07:47:51;;;;;;;8.60;4.47;;;20.10;99.90;;;;;;5110535;28;20213;-77
2023/07/07 07:50:19;;;;;;;9.18;4.30;;;20.10;99.90;;;;;;5103282;28;20202;-76
2023/07/07 07:52:45;;;;;;;9.07;4.72;;;20.30;99.90;;;;;;5111305;28;20185;-76
2023/07/07 07:55:11;;;;;;;8.60;3.75;;;20.30;99.90;;;;;;5111696;28;20177;-77
2023/07/07 07:57:37;;;;;;;10.43;4.25;;;20.40;99.90;;;;;;5112841;28;20246;-77
2023/07/07 08:00:04;;;;;;;12.35;4.50;;;20.40;99.90;;;;;;5108392;28;20182;-76
2023/07/07 08:02:38;;;;;;;10.55;4.18;;;20.50;99.90;;;;;;5107691;28;20193;-79
2023/07/07 08:05:05;;;;;;;7.50;4.40;;;20.60;99.90;;;;;;5106204;28;20182;-80
2023/07/07 08:07:31;;;;;;;6.82;3.78;;;20.70;99.90;;;;;;5111254;28;20218;-77
2023/07/07 08:09:57;;;;;;;7.20;3.97;;;20.80;99.90;;;;;;5096391;28;20218;-76
2023/07/07 08:12:23;;;;;;;8.70;3.67;;;21.00;99.90;;;;;;5102893;28;21783;-78
2023/07/07 08:14:49;;;;;;;10.88;4.18;;;21.10;99.90;;;;;;5106094;28;20663;-78
2023/07/07 08:17:16;;;;;;;6.50;3.65;;;21.20;99.90;;;;;;5112792;28;20267;-77
2023/07/07 08:19:43;;;;;;;7.55;3.30;;;21.30;99.90;;;;;;5102199;28;20665;-76
2023/07/07 08:22:16;;;;;;;10.18;3.60;;;21.40;99.90;;;;;;5107554;28;20204;-78
2023/07/07 08:24:48;;;;;;;10.88;3.63;;;21.50;99.90;;;;;;5105688;28;20204;-77
2023/07/07 08:27:15;;;;;;;8.48;3.65;;;21.60;99.90;;;;;;5094632;28;20478;-79
2023/07/07 08:29:42;;;;;;;7.50;3.30;;;21.70;99.90;;;;;;5106956;28;20255;-75
2023/07/07 08:32:10;;;;;;;8.65;3.75;;;21.80;99.90;;;;;;5111435;28;20652;-74
2023/07/07 08:34:36;;;;;;;9.30;3.33;;;21.90;99.90;;;;;;5105856;28;20187;-76
2023/07/07 08:37:02;;;;;;;6.25;3.35;;;22.00;99.90;;;;;;5096376;28;20207;-74
2023/07/07 08:39:29;;;;;;;6.13;3.00;;;22.10;99.90;;;;;;5099396;28;20686;-75
2023/07/07 08:42:02;;;;;;;6.90;3.00;;;22.20;99.90;;;;;;5109053;28;20657;-76
2023/07/07 08:44:32;;;;;;;8.20;3.33;;;22.30;99.50;;;;;;5098988;28;20174;-76
2023/07/07 08:47:21;;;;;;;9.75;3.35;;;22.30;99.30;;;;;;5105346;28;20267;-75
2023/07/07 08:50:10;;;;;;;10.55;3.10;;;22.40;98.70;;;;;;5108048;28;20235;-75
2023/07/07 08:52:42;;;;;;;8.20;3.33;;;22.60;98.30;;;;;;5108989;28;20181;-77
2023/07/07 08:55:33;;;;;;;8.25;3.10;;;22.70;97.70;;;;;;5105820;28;20177;-75
2023/07/07 08:58:08;;;;;;;10.65;3.20;;;22.70;97.10;;;;;;5096911;28;20268;-78
2023/07/07 09:00:52;;;;;;;9.50;3.13;;;22.80;96.80;;;;;;5095139;28;20212;-77
2023/07/07 09:03:32;;;;;;;6.53;2.88;;;23.00;96.20;;;;;;5097415;28;20188;-77
2023/07/07 09:06:20;;;;;;;7.15;3.25;;;23.10;95.20;;;;;;5092435;28;20542;-76
2023/07/07 09:09:10;;;;;;;9.65;2.55;;;23.30;94.20;;;;;;5091789;28;20300;-77
2023/07/07 09:12:00;;;;;;;6.13;2.90;;;23.30;93.10;;;;;;5090269;28;20653;-75
2023/07/07 09:14:28;;;;;;;3.92;2.70;;;23.40;92.00;;;;;;5100471;28;20181;-78
2023/07/07 09:16:58;;;;;;;4.57;2.65;;;23.50;90.90;;;;;;5108775;28;20223;-77
2023/07/07 09:19:32;;;;;;;6.18;2.67;;;23.60;89.00;;;;;;5110820;28;20212;-77
2023/07/07 09:22:33;;;;;;;4.22;2.70;;;23.60;87.20;;;;;;5112482;28;20189;-77
2023/07/07 09:25:02;;;;;;;6.55;2.85;;;23.60;87.10;;;;;;5100348;28;20544;-77
2023/07/07 09:28:02;;;;;;;7.28;2.83;;;23.70;86.80;;;;;;5103479;28;20798;-82
2023/07/07 09:30:33;;;;;;;5.57;2.92;;;23.80;86.60;;;;;;5106392;28;20195;-78
2023/07/07 09:33:00;;;;;;;5.50;2.90;;;23.90;86.30;;;;;;5105387;28;20178;-76
2023/07/07 09:35:31;;;;;;;5.25;2.60;;;24.00;86.00;;;;;;5102404;28;20185;-75
2023/07/07 09:38:24;;;;;;;4.25;2.70;;;24.10;85.10;;;;;;5110699;28;20648;-78
2023/07/07 09:41:21;;;;;;;8.35;3.05;;;24.20;84.70;;;;;;5077072;28;20599;-75
2023/07/07 09:44:14;;;;;;;5.88;2.83;;;24.30;83.70;;;;;;5105112;28;20191;-76
2023/07/07 09:47:05;;;;;;;11.73;6.03;;;24.50;82.30;;;;;;5092603;28;20184;-80
2023/07/07 09:49:41;;;;;;;6.93;3.85;;;24.60;81.80;;;;;;5109229;28;20177;-75
2023/07/07 09:52:36;;;;;;;6.47;2.70;;;24.60;81.80;;;;;;5107168;28;20181;-76
2023/07/07 09:55:10;;;;;;;4.28;2.90;;;24.70;80.80;;;;;;5107356;28;20235;-75
2023/07/07 09:57:41;;;;;;;8.18;2.85;;;24.80;80.40;;;;;;5113038;28;20189;-75
2023/07/07 10:00:16;;;;;;;6.25;2.95;;;24.90;79.70;;;;;;5115027;28;20243;-76
2023/07/07 10:02:44;;;;;;;5.18;2.70;;;25.00;78.90;;;;;;5114799;28;20234;-75
2023/07/07 10:05:15;;;;;;;4.18;2.60;;;25.10;79.00;;;;;;5105738;28;20178;-77
2023/07/07 10:07:41;;;;;;;9.68;3.03;;;25.20;78.80;;;;;;5113189;28;20193;-76
2023/07/07 10:10:13;;;;;;;5.50;3.15;;;25.20;78.30;;;;;;5114997;28;20272;-75
2023/07/07 10:12:40;;;;;;;7.82;2.90;;;25.40;77.90;;;;;;5104294;28;20192;-76
2023/07/07 10:15:44;;;;;;;5.03;2.63;;;25.50;77.40;;;;;;5101129;28;20182;-76
2023/07/07 10:18:20;;;;;;;5.03;2.70;;;25.50;76.00;;;;;;5113968;28;20185;-75
2023/07/07 10:20:46;;;;;;;7.80;2.80;;;25.50;75.70;;;;;;5112178;28;20692;-75
2023/07/07 10:23:13;;;;;;;4.13;2.60;;;25.40;75.60;;;;;;5091881;28;20269;-76
2023/07/07 10:25:42;;;;;;;7.55;2.80;;;25.50;75.50;;;;;;5075738;28;20213;-76
2023/07/07 10:28:14;;;;;;;4.30;2.88;;;25.50;74.90;;;;;;5093992;28;20233;-75
2023/07/07 10:30:41;;;;;;;4.72;2.67;;;25.50;74.60;;;;;;5111594;28;20589;-77
2023/07/07 10:33:12;;;;;;;5.53;2.92;;;25.60;74.20;;;;;;5104268;28;20589;-81
2023/07/07 10:35:38;;;;;;;4.90;2.38;;;25.60;73.20;;;;;;5095976;28;20193;-78
2023/07/07 10:38:05;;;;;;;4.63;2.70;;;25.80;72.70;;;;;;5092419;28;20189;-76
2023/07/07 10:40:31;;;;;;;7.45;2.92;;;25.80;72.30;;;;;;5107775;28;20173;-77
2023/07/07 10:42:58;;;;;;;7.95;2.90;;;25.90;72.30;;;;;;5111850;28;20181;-77
2023/07/07 10:45:24;;;;;;;4.53;2.47;;;26.00;71.90;;;;;;5112974;28;20247;-77
2023/07/07 10:47:51;;;;;;;6.85;2.80;;;26.10;71.60;;;;;;5099962;28;20213;-75
2023/07/07 10:50:23;;;;;;;6.25;3.05;;;26.20;70.70;;;;;;5095028;28;20186;-77
2023/07/07 10:53:02;;;;;;;6.68;3.28;;;26.20;70.20;;;;;;5095128;28;20204;-76
2023/07/07 10:55:37;;;;;;;7.20;2.40;;;26.30;69.70;;;;;;5091416;28;20220;-75
2023/07/07 10:58:49;;;;;;;5.53;2.47;;;26.40;68.70;;;;;;5093707;28;20181;-75
2023/07/07 11:01:49;;;;;;;4.85;2.80;;;26.50;67.90;;;;;;5093360;28;20197;-75
2023/07/07 11:04:30;;;;;;;5.05;2.65;;;26.60;67.80;;;;;;5074222;28;20220;-76
2023/07/07 11:07:17;;;;;;;7.93;2.55;;;26.60;67.30;;;;;;5096132;28;20264;-77
2023/07/07 11:10:19;;;;;;;7.80;2.67;;;26.60;67.30;;;;;;5093546;28;20189;-76
2023/07/07 11:13:20;;;;;;;8.80;2.80;;;26.60;66.90;;;;;;5097418;28;20177;-77
2023/07/07 11:15:52;;;;;;;5.55;2.90;;;26.60;67.50;;;;;;5094036;28;20177;-77
2023/07/07 11:18:39;;;;;;;7.35;2.80;;;26.60;67.40;;;;;;5096524;28;20189;-78
2023/07/07 11:21:28;;;;;;;5.95;2.72;;;26.50;67.40;;;;;;5108758;28;20269;-77
2023/07/07 11:24:06;;;;;;;5.55;3.00;;;26.40;67.50;;;;;;5090450;28;20240;-76
2023/07/07 11:27:14;;;;;;;5.90;2.80;;;26.30;68.00;;;;;;5091791;28;20642;-76
2023/07/07 11:30:10;;;;;;;3.47;2.50;;;26.20;68.10;;;;;;5073334;28;20256;-77
2023/07/07 11:33:05;;;;;;;6.75;2.70;;;26.20;68.10;;;;;;5076675;28;20640;-77
2023/07/07 11:36:12;;;;;;;5.70;3.10;;;26.30;68.50;;;;;;5098159;28;20219;-77
2023/07/07 11:38:41;;;;;;;8.45;4.50;;;26.30;68.50;;;;;;5068219;28;20196;-77
2023/07/07 11:41:48;;;;;;;4.95;2.90;;;26.30;68.40;;;;;;5093137;28;20181;-78
2023/07/07 11:44:34;;;;;;;6.63;2.90;;;26.20;68.20;;;;;;5076095;28;20194;-79
2023/07/07 11:47:26;;;;;;;8.70;3.08;;;26.20;68.30;;;;;;5093966;28;20229;-77
2023/07/07 11:50:19;;;;;;;11.38;4.65;;;26.20;68.10;;;;;;5093565;28;20220;-76
2023/07/07 11:53:03;;;;;;;8.00;5.10;;;26.20;67.30;;;;;;5092003;28;20178;-79
2023/07/07 11:55:43;;;;;;;6.15;3.72;;;26.20;67.80;;;;;;5100231;28;20188;-77
2023/07/07 11:58:40;;;;;;;6.57;2.90;;;26.30;68.10;;;;;;5080579;28;20594;-77
2023/07/07 12:01:21;;;;;;;7.38;3.20;;;26.50;68.50;;;;;;5112911;28;20205;-76
2023/07/07 12:03:58;;;;;;;5.70;3.42;;;26.60;68.00;;;;;;5112251;28;20173;-78
2023/07/07 12:06:46;;;;;;;5.28;3.10;;;26.60;67.70;;;;;;5111350;28;20667;-78
2023/07/07 12:09:18;;;;;;;8.15;3.20;;;26.60;66.50;;;;;;5091084;28;20214;-77
2023/07/07 12:12:08;;;;;;;6.55;2.97;;;26.60;66.20;;;;;;5096348;28;20218;-78
2023/07/07 12:14:43;;;;;;;5.82;3.10;;;26.70;65.60;;;;;;5108104;28;20209;-75
2023/07/07 12:17:18;;;;;;;7.93;2.97;;;26.70;65.40;;;;;;5098280;28;20226;-77
2023/07/07 12:19:50;;;;;;;5.22;2.97;;;26.70;64.40;;;;;;5110461;28;20252;-77
2023/07/07 12:22:28;;;;;;;5.07;2.88;;;26.60;63.90;;;;;;5112608;28;20256;-78
2023/07/07 12:25:23;;;;;;;5.30;3.15;;;26.60;63.50;;;;;;5107080;28;20210;-76
2023/07/07 12:27:51;;;;;;;7.20;2.85;;;26.60;63.10;;;;;;5092961;28;20685;-77
2023/07/07 12:30:25;;;;;;;4.88;2.80;;;26.60;62.60;;;;;;5108980;28;20746;-77
2023/07/07 12:32:52;;;;;;;5.32;2.80;;;26.60;61.90;;;;;;5111438;28;20185;-78
2023/07/07 12:35:27;;;;;;;9.93;3.70;;;26.60;61.70;;;;;;5099095;28;20618;-75
2023/07/07 12:37:57;;;;;;;8.30;3.28;;;26.60;61.80;;;;;;5107377;28;20184;-78
2023/07/07 12:40:23;;;;;;;5.57;2.90;;;26.60;61.70;;;;;;5112392;28;20177;-75
2023/07/07 12:43:05;;;;;;;6.22;3.15;;;26.70;61.90;;;;;;5112220;28;20176;-76
2023/07/07 12:45:32;;;;;;;3.97;2.95;;;26.70;60.90;;;;;;5107541;28;20182;-78
2023/07/07 12:48:13;;;;;;;5.10;2.72;;;26.70;60.40;;;;;;5098306;28;20213;-77
2023/07/07 12:50:42;;;;;;;6.10;2.65;;;26.70;59.70;;;;;;5090504;28;20182;-80
2023/07/07 12:53:30;;;;;;;5.88;3.08;;;26.70;59.70;;;;;;5091884;28;20186;-77
2023/07/07 12:56:04;;;;;;;5.43;3.08;;;26.70;60.00;;;;;;5091774;28;20183;-77
2023/07/07 12:58:36;;;;;;;4.70;2.70;;;26.70;60.00;;;;;;5096280;28;20235;-77
2023/07/07 13:01:23;;;;;;;7.20;2.80;;;26.80;60.00;;;;;;5092028;28;20185;-77